Time;durP1;ratioP1;P1;durP2;ratioP2;P2;SDS_P1;SDS_P2;PMS_P1;PMS_P2;Temp;Humidity;BMP_temperature;BMP_pressure;BME280_temperature;BME280_humidity;BME280_pressure;Samples;Min_cycle;Max_cycle;Signal;HPM_P1;HPM_P2
2023/07/01 00:01:44;;;;;;;4.10;2.83;;;16.40;82.30;;;;;;5033265;28;20025;-75
2023/07/01 00:04:12;;;;;;;3.45;2.55;;;16.40;82.30;;;;;;5031346;28;20038;-75
2023/07/01 00:06:41;;;;;;;3.83;2.78;;;16.50;82.30;;;;;;5031838;28;20028;-76
2023/07/01 00:09:09;;;;;;;5.85;3.30;;;16.40;82.20;;;;;;5031903;28;20088;-75
2023/07/01 00:11:34;;;;;;;3.40;2.85;;;16.50;82.50;;;;;;5015708;28;20103;-79
2023/07/01 00:14:00;;;;;;;3.22;2.78;;;16.50;82.30;;;;;;5031785;28;20477;-79
2023/07/01 00:16:27;;;;;;;3.40;2.60;;;16.60;82.20;;;;;;5031590;28;20042;-78
2023/07/01 00:18:53;;;;;;;5.28;2.75;;;16.60;82.10;;;;;;5031725;28;20029;-80
2023/07/01 00:21:19;;;;;;;3.55;2.58;;;16.60;82.10;;;;;;5032010;28;20112;-79
2023/07/01 00:23:45;;;;;;;2.55;2.30;;;16.70;82.10;;;;;;5031933;28;20044;-81
2023/07/01 00:26:11;;;;;;;3.38;2.67;;;16.70;82.70;;;;;;5031861;28;20025;-80
2023/07/01 00:28:36;;;;;;;4.75;3.15;;;16.70;81.70;;;;;;5031756;28;20524;-78
2023/07/01 00:31:02;;;;;;;6.57;3.10;;;16.70;81.70;;;;;;5031121;28;20079;-80
2023/07/01 00:33:27;;;;;;;3.70;2.75;;;16.70;81.70;;;;;;5032004;28;20040;-80
2023/07/01 00:35:53;;;;;;;4.60;2.97;;;16.80;81.70;;;;;;5031687;28;20022;-79
2023/07/01 00:38:19;;;;;;;4.57;3.42;;;16.80;81.50;;;;;;5031356;28;20032;-79
2023/07/01 00:40:45;;;;;;;8.05;3.63;;;16.70;81.70;;;;;;5031850;28;20041;-77
2023/07/01 00:43:10;;;;;;;6.03;3.38;;;16.60;81.70;;;;;;5031199;28;20397;-77
2023/07/01 00:45:36;;;;;;;4.25;3.20;;;16.60;82.00;;;;;;5031483;28;20036;-77
2023/07/01 00:48:01;;;;;;;3.85;3.00;;;16.60;82.10;;;;;;5031163;28;20474;-79
2023/07/01 00:50:27;;;;;;;4.72;2.85;;;16.60;82.20;;;;;;5031628;28;20030;-79
2023/07/01 00:52:53;;;;;;;3.28;2.85;;;16.60;82.30;;;;;;5031606;28;20117;-80
2023/07/01 00:55:19;;;;;;;2.63;2.42;;;16.70;82.30;;;;;;5031734;28;20057;-79
2023/07/01 00:57:45;;;;;;;7.20;3.03;;;16.70;82.90;;;;;;5031751;28;20493;-79
2023/07/01 01:00:12;;;;;;;5.13;3.05;;;16.80;81.80;;;;;;5031438;28;20074;-80
2023/07/01 01:03:06;;;;;;;3.67;2.90;;;16.80;81.50;;;;;;5031389;28;20160;-79
2023/07/01 01:05:45;;;;;;;5.15;2.60;;;16.80;81.30;;;;;;5031265;28;20076;-80
2023/07/01 01:08:19;;;;;;;4.13;3.15;;;16.70;81.50;;;;;;5031344;28;20028;-79
2023/07/01 01:10:47;;;;;;;4.22;2.90;;;16.80;81.40;;;;;;5034139;28;20025;-79
2023/07/01 01:13:14;;;;;;;8.10;3.45;;;16.70;81.40;;;;;;5035317;28;20410;-79
2023/07/01 01:15:41;;;;;;;2.95;2.65;;;16.70;82.50;;;;;;5035092;28;20049;-80
2023/07/01 01:18:07;;;;;;;3.97;3.00;;;16.60;81.80;;;;;;5035119;28;20106;-79
2023/07/01 01:20:38;;;;;;;6.85;3.22;;;16.70;82.70;;;;;;5034894;28;20022;-79
2023/07/01 01:23:14;;;;;;;3.97;2.95;;;16.60;81.90;;;;;;5034940;28;20029;-79
2023/07/01 01:25:48;;;;;;;4.40;3.15;;;16.60;81.90;;;;;;5034973;28;20142;-79
2023/07/01 01:28:14;;;;;;;8.45;2.90;;;16.60;82.20;;;;;;5034960;28;20025;-79
2023/07/01 01:30:40;;;;;;;5.18;2.78;;;16.60;82.20;;;;;;5035090;28;20033;-79
2023/07/01 01:33:06;;;;;;;4.07;2.92;;;16.50;82.40;;;;;;5034946;28;20033;-79
2023/07/01 01:35:32;;;;;;;5.28;3.17;;;16.50;82.50;;;;;;5034759;28;20503;-78
2023/07/01 01:38:15;;;;;;;6.45;3.00;;;16.50;82.60;;;;;;5034424;28;20460;-79
2023/07/01 01:40:51;;;;;;;2.85;2.63;;;16.50;82.50;;;;;;5034733;28;20026;-78
2023/07/01 01:43:20;;;;;;;5.15;3.08;;;16.50;82.40;;;;;;5034536;28;20026;-79
2023/07/01 01:45:47;;;;;;;7.97;4.32;;;16.50;82.40;;;;;;5034769;28;20057;-76
2023/07/01 01:48:13;;;;;;;6.30;4.00;;;16.50;82.50;;;;;;5035722;28;20029;-76
2023/07/01 01:50:41;;;;;;;4.57;3.60;;;16.60;82.40;;;;;;5034377;28;20033;-76
2023/07/01 01:53:08;;;;;;;3.60;2.97;;;16.60;82.20;;;;;;5034668;28;20026;-77
2023/07/01 01:55:34;;;;;;;4.70;3.40;;;16.50;82.40;;;;;;5034569;28;20056;-76
2023/07/01 01:58:00;;;;;;;5.28;3.63;;;16.50;82.60;;;;;;5034435;28;20511;-76
2023/07/01 02:00:26;;;;;;;5.15;3.58;;;16.50;82.80;;;;;;5034915;28;20386;-76
2023/07/01 02:02:53;;;;;;;3.47;3.03;;;16.50;82.80;;;;;;5033841;28;20030;-76
2023/07/01 02:05:19;;;;;;;5.13;3.70;;;16.50;83.60;;;;;;5034488;28;20033;-76
2023/07/01 02:07:45;;;;;;;5.68;3.47;;;16.50;82.90;;;;;;5034324;28;20026;-76
2023/07/01 02:10:12;;;;;;;3.97;3.30;;;16.50;82.80;;;;;;5034160;28;20069;-77
2023/07/01 02:12:37;;;;;;;4.25;2.92;;;16.50;83.00;;;;;;5034259;28;20026;-76
2023/07/01 02:15:03;;;;;;;4.72;3.83;;;16.50;83.20;;;;;;5034057;28;20028;-76
2023/07/01 02:17:28;;;;;;;5.43;3.88;;;16.50;83.10;;;;;;5033959;28;20133;-76
2023/07/01 02:19:54;;;;;;;7.88;6.32;;;16.50;83.30;;;;;;5034285;28;20390;-76
2023/07/01 02:22:21;;;;;;;11.70;7.50;;;16.50;83.00;;;;;;5032895;28;20083;-76
2023/07/01 02:24:47;;;;;;;9.52;7.22;;;16.50;82.80;;;;;;5033735;28;20033;-76
2023/07/01 02:27:12;;;;;;;7.85;6.45;;;16.50;83.00;;;;;;5033991;28;20018;-77
2023/07/01 02:29:38;;;;;;;5.82;4.60;;;16.50;83.00;;;;;;5033798;28;20029;-77
2023/07/01 02:32:04;;;;;;;6.03;3.95;;;16.60;82.80;;;;;;5033928;28;20100;-77
2023/07/01 02:34:30;;;;;;;5.53;3.47;;;16.60;82.80;;;;;;5033804;28;20025;-77
2023/07/01 02:36:56;;;;;;;5.30;3.13;;;16.60;82.60;;;;;;5033816;28;20028;-76
2023/07/01 02:39:22;;;;;;;6.45;2.97;;;16.60;82.60;;;;;;5033708;28;20026;-76
2023/07/01 02:41:47;;;;;;;3.85;2.92;;;16.60;82.20;;;;;;5033711;28;20080;-76
2023/07/01 02:44:14;;;;;;;4.13;3.20;;;16.60;82.20;;;;;;5033514;28;20079;-76
2023/07/01 02:46:40;;;;;;;5.28;2.60;;;16.60;82.00;;;;;;5033218;28;20019;-80
2023/07/01 02:49:05;;;;;;;4.30;3.30;;;16.60;82.00;;;;;;5033026;28;20032;-80
2023/07/01 02:51:32;;;;;;;4.10;2.80;;;16.60;82.00;;;;;;5033651;28;20059;-80
2023/07/01 02:53:58;;;;;;;3.22;2.60;;;16.60;82.00;;;;;;5033491;28;20025;-80
2023/07/01 02:56:23;;;;;;;3.17;2.85;;;16.50;82.30;;;;;;5032917;28;20080;-79
2023/07/01 02:58:49;;;;;;;4.40;3.05;;;16.50;82.40;;;;;;5033403;28;20029;-80
2023/07/01 03:01:14;;;;;;;3.55;2.50;;;16.50;83.20;;;;;;5033067;28;20104;-79
2023/07/01 03:03:40;;;;;;;5.35;3.10;;;16.50;82.30;;;;;;5033051;28;20030;-79
2023/07/01 03:06:06;;;;;;;3.85;3.20;;;16.50;82.40;;;;;;5032908;28;20527;-79
2023/07/01 03:08:32;;;;;;;4.78;3.13;;;16.50;82.50;;;;;;5033398;28;20124;-81
2023/07/01 03:10:57;;;;;;;3.15;2.85;;;16.50;82.50;;;;;;5033365;28;20052;-80
2023/07/01 03:13:23;;;;;;;2.85;2.58;;;16.50;82.40;;;;;;5035935;28;20022;-79
2023/07/01 03:15:50;;;;;;;4.07;2.80;;;16.50;82.40;;;;;;5033423;28;20489;-79
2023/07/01 03:18:15;;;;;;;3.50;2.50;;;16.50;82.40;;;;;;5033505;28;20030;-79
2023/07/01 03:20:41;;;;;;;3.92;2.80;;;16.50;82.40;;;;;;5032864;28;20470;-80
2023/07/01 03:23:07;;;;;;;3.53;2.80;;;16.50;82.20;;;;;;5032644;28;20083;-80
2023/07/01 03:25:33;;;;;;;4.70;3.05;;;16.50;82.30;;;;;;5033624;28;20022;-79
2023/07/01 03:27:58;;;;;;;5.22;3.40;;;16.50;82.10;;;;;;5032219;28;20436;-79
2023/07/01 03:30:30;;;;;;;2.97;2.75;;;16.50;82.00;;;;;;5032406;28;20685;-79
2023/07/01 03:32:56;;;;;;;6.00;2.67;;;16.50;81.90;;;;;;5032385;28;20112;-79
2023/07/01 03:35:22;;;;;;;4.30;2.53;;;16.50;81.80;;;;;;5032682;28;20021;-78
2023/07/01 03:37:48;;;;;;;5.32;3.05;;;16.60;82.50;;;;;;5032691;28;20413;-79
2023/07/01 03:40:13;;;;;;;3.47;2.72;;;16.60;81.80;;;;;;5032326;28;20029;-79
2023/07/01 03:42:40;;;;;;;4.18;3.03;;;16.50;82.10;;;;;;5032289;28;20381;-78
2023/07/01 03:45:07;;;;;;;3.55;2.92;;;16.50;82.80;;;;;;5032269;28;20041;-78
2023/07/01 03:47:34;;;;;;;3.47;3.08;;;16.50;81.90;;;;;;5032320;28;20017;-79
2023/07/01 03:50:00;;;;;;;5.00;2.65;;;16.60;81.90;;;;;;5032236;28;20065;-78
2023/07/01 03:52:25;;;;;;;4.03;2.60;;;16.60;81.90;;;;;;5032429;28;20064;-79
2023/07/01 03:54:51;;;;;;;4.22;2.53;;;16.50;82.00;;;;;;5031864;28;20021;-78
2023/07/01 03:57:16;;;;;;;3.83;2.85;;;16.50;82.40;;;;;;5032254;28;20025;-79
2023/07/01 03:59:42;;;;;;;5.05;2.88;;;16.50;82.20;;;;;;5031861;28;20021;-81
2023/07/01 04:02:08;;;;;;;6.00;3.10;;;16.50;82.20;;;;;;5031757;28;20030;-81
2023/07/01 04:04:33;;;;;;;3.17;2.88;;;16.60;82.10;;;;;;5031482;28;20076;-80
2023/07/01 04:06:59;;;;;;;3.00;2.60;;;16.60;81.90;;;;;;5031908;28;20378;-79
2023/07/01 04:09:25;;;;;;;2.97;2.72;;;16.60;81.70;;;;;;5032139;28;20029;-78
2023/07/01 04:11:52;;;;;;;3.70;2.85;;;16.60;81.50;;;;;;5032213;28;20067;-77
2023/07/01 04:14:17;;;;;;;3.08;2.72;;;16.60;81.40;;;;;;5031634;28;20433;-77
2023/07/01 04:16:45;;;;;;;3.67;2.67;;;16.60;82.20;;;;;;5031406;28;20041;-76
2023/07/01 04:19:11;;;;;;;4.70;2.83;;;16.60;81.50;;;;;;5031849;28;20103;-79
2023/07/01 04:21:37;;;;;;;4.43;3.00;;;16.60;81.50;;;;;;5015363;28;20481;-74
2023/07/01 04:24:07;;;;;;;3.38;2.65;;;16.60;81.60;;;;;;5031664;28;20029;-75
2023/07/01 04:26:35;;;;;;;5.57;2.65;;;16.60;81.50;;;;;;5031716;28;20032;-74
2023/07/01 04:29:01;;;;;;;2.42;2.22;;;16.70;81.50;;;;;;5031652;28;20024;-76
2023/07/01 04:31:27;;;;;;;3.53;2.60;;;16.70;81.50;;;;;;5031927;28;20489;-75
2023/07/01 04:33:53;;;;;;;4.80;3.03;;;16.80;81.20;;;;;;5031807;28;20116;-76
2023/07/01 04:36:19;;;;;;;4.40;2.70;;;16.80;80.70;;;;;;5031342;28;20026;-76
2023/07/01 04:38:45;;;;;;;4.32;3.10;;;16.80;80.40;;;;;;5031619;28;20025;-76
2023/07/01 04:41:10;;;;;;;6.32;2.92;;;16.80;80.30;;;;;;5031755;28;20029;-75
2023/07/01 04:43:36;;;;;;;3.65;3.03;;;16.80;80.00;;;;;;5033032;28;20034;-76
2023/07/01 04:46:03;;;;;;;3.00;2.70;;;16.80;79.90;;;;;;5036658;28;20378;-76
2023/07/01 04:48:29;;;;;;;3.70;2.70;;;16.80;80.20;;;;;;5040390;28;20036;-76
2023/07/01 04:50:55;;;;;;;2.85;2.63;;;16.90;80.30;;;;;;5035608;28;20029;-76
2023/07/01 04:53:21;;;;;;;4.05;2.70;;;16.90;80.20;;;;;;5035044;28;20021;-76
2023/07/01 04:55:46;;;;;;;2.90;2.67;;;16.90;80.10;;;;;;5035503;28;20029;-78
2023/07/01 04:58:12;;;;;;;4.32;2.80;;;17.00;80.00;;;;;;5035546;28;20034;-76
2023/07/01 05:00:38;;;;;;;3.03;2.20;;;17.10;79.80;;;;;;5035676;28;20036;-79
2023/07/01 05:03:04;;;;;;;3.22;2.92;;;17.20;79.40;;;;;;5035714;28;20497;-80
2023/07/01 05:05:30;;;;;;;4.68;2.60;;;17.20;79.10;;;;;;5035643;28;20116;-78
2023/07/01 05:07:56;;;;;;;3.63;2.50;;;17.30;78.90;;;;;;5035277;28;20057;-78
2023/07/01 05:10:22;;;;;;;2.65;2.45;;;17.30;78.70;;;;;;5035341;28;20033;-78
2023/07/01 05:12:49;;;;;;;2.65;2.42;;;17.30;78.70;;;;;;5035483;28;20386;-78
2023/07/01 05:15:15;;;;;;;4.10;2.70;;;17.30;78.40;;;;;;5035514;28;20055;-77
2023/07/01 05:17:42;;;;;;;4.57;2.58;;;17.30;78.40;;;;;;5035249;28;20053;-76
2023/07/01 05:20:08;;;;;;;3.05;2.53;;;17.40;78.20;;;;;;5034926;28;20017;-77
2023/07/01 05:22:34;;;;;;;3.20;2.40;;;17.60;78.00;;;;;;5035206;28;20036;-76
2023/07/01 05:25:01;;;;;;;2.83;2.28;;;17.70;77.50;;;;;;5034729;28;20037;-76
2023/07/01 05:27:26;;;;;;;3.10;2.53;;;17.80;76.90;;;;;;5035240;28;20021;-76
2023/07/01 05:29:52;;;;;;;3.67;2.70;;;17.90;76.40;;;;;;5035130;28;20484;-75
2023/07/01 05:32:18;;;;;;;5.28;2.90;;;18.00;75.20;;;;;;5034941;28;20120;-77
2023/07/01 05:34:44;;;;;;;3.97;2.83;;;17.90;74.00;;;;;;5034851;28;20462;-76
2023/07/01 05:37:10;;;;;;;5.50;2.83;;;17.90;72.90;;;;;;5034645;28;20029;-76
2023/07/01 05:39:36;;;;;;;8.55;2.67;;;17.90;71.70;;;;;;5034609;28;20484;-76
2023/07/01 05:42:01;;;;;;;5.03;2.70;;;17.80;66.40;;;;;;5035108;28;20033;-76
2023/07/01 05:44:27;;;;;;;5.03;3.10;;;17.80;67.80;;;;;;5034566;28;20079;-78
2023/07/01 05:46:53;;;;;;;6.35;3.53;;;17.90;68.00;;;;;;5034610;28;20121;-77
2023/07/01 05:49:19;;;;;;;6.47;3.10;;;17.90;67.60;;;;;;5034839;28;20112;-78
2023/07/01 05:51:44;;;;;;;3.35;2.97;;;18.00;66.40;;;;;;5034510;28;20025;-76
2023/07/01 05:54:10;;;;;;;4.07;3.20;;;17.70;67.60;;;;;;5034175;28;20079;-76
2023/07/01 05:56:36;;;;;;;5.53;3.42;;;17.80;67.70;;;;;;5034093;28;20021;-74
2023/07/01 05:59:02;;;;;;;6.90;3.83;;;17.80;67.20;;;;;;5034331;28;20068;-76
2023/07/01 06:01:29;;;;;;;7.45;3.80;;;17.70;67.40;;;;;;5033772;28;20030;-76
2023/07/01 06:03:54;;;;;;;4.00;2.88;;;17.80;67.70;;;;;;5034335;28;20386;-77
2023/07/01 06:06:22;;;;;;;6.28;2.72;;;17.90;66.50;;;;;;5034483;28;20022;-77
2023/07/01 06:08:48;;;;;;;6.78;3.17;;;17.90;66.00;;;;;;5033960;28;20030;-76
2023/07/01 06:11:14;;;;;;;6.47;3.10;;;17.90;63.50;;;;;;5034357;28;20022;-76
2023/07/01 06:13:47;;;;;;;3.55;2.40;;;18.00;63.50;;;;;;5038495;28;20045;-75
2023/07/01 06:16:14;;;;;;;5.95;2.22;;;18.00;62.70;;;;;;5033937;28;20041;-76
2023/07/01 06:18:40;;;;;;;4.72;2.85;;;18.00;60.60;;;;;;5033880;28;20018;-76
2023/07/01 06:21:09;;;;;;;6.75;2.90;;;18.10;60.60;;;;;;5033721;28;20104;-76
2023/07/01 06:23:35;;;;;;;3.95;2.50;;;18.20;60.20;;;;;;5033622;28;20025;-77
2023/07/01 06:26:02;;;;;;;3.97;2.55;;;18.20;59.00;;;;;;5033631;28;20123;-77
2023/07/01 06:28:28;;;;;;;10.15;3.78;;;18.40;59.40;;;;;;5033671;28;20053;-77
2023/07/01 06:30:54;;;;;;;7.22;3.40;;;18.40;60.60;;;;;;5033103;28;20032;-76
2023/07/01 06:33:21;;;;;;;6.20;2.60;;;18.50;60.80;;;;;;5033174;28;20112;-76
2023/07/01 06:35:47;;;;;;;4.45;2.60;;;18.50;61.00;;;;;;5033006;28;20022;-74
2023/07/01 06:38:12;;;;;;;5.18;3.00;;;18.70;60.60;;;;;;5033224;28;20412;-75
2023/07/01 06:40:38;;;;;;;4.72;2.42;;;18.60;60.10;;;;;;5032807;28;20029;-76
2023/07/01 06:43:04;;;;;;;5.93;2.80;;;18.80;59.70;;;;;;5033201;28;20029;-76
2023/07/01 06:45:30;;;;;;;2.85;2.58;;;18.90;59.80;;;;;;5033086;28;20079;-75
2023/07/01 06:47:57;;;;;;;4.88;3.05;;;19.10;59.50;;;;;;5033000;28;20022;-73
2023/07/01 06:50:23;;;;;;;7.22;2.63;;;19.20;59.40;;;;;;5032802;28;20037;-73
2023/07/01 06:52:48;;;;;;;5.28;2.70;;;19.20;58.60;;;;;;5034135;28;20033;-73
2023/07/01 06:55:14;;;;;;;3.63;2.60;;;19.40;57.80;;;;;;5034182;28;20022;-73
2023/07/01 06:57:41;;;;;;;5.63;2.45;;;19.40;57.40;;;;;;5034222;28;20029;-72
2023/07/01 07:00:11;;;;;;;4.75;2.92;;;19.50;56.80;;;;;;5033599;28;20017;-72
2023/07/01 07:02:37;;;;;;;5.07;2.25;;;19.60;61.40;;;;;;5033164;28;20026;-75
2023/07/01 07:05:04;;;;;;;7.13;2.80;;;19.60;55.50;;;;;;5032767;28;20033;-75
2023/07/01 07:07:30;;;;;;;3.03;2.30;;;19.70;55.00;;;;;;5032676;28;20029;-77
2023/07/01 07:09:56;;;;;;;4.18;2.50;;;19.60;55.30;;;;;;5033160;28;20456;-78
2023/07/01 07:12:21;;;;;;;4.63;2.58;;;19.80;54.80;;;;;;5033331;28;20021;-78
2023/07/01 07:14:47;;;;;;;9.35;2.88;;;19.70;54.00;;;;;;5034173;28;20040;-86
2023/07/01 07:17:13;;;;;;;5.20;2.70;;;19.70;53.30;;;;;;5032716;28;20426;-79
2023/07/01 07:19:39;;;;;;;5.53;2.88;;;19.50;53.70;;;;;;5033151;28;20032;-79
2023/07/01 07:22:06;;;;;;;4.20;2.97;;;19.50;53.50;;;;;;5032721;28;20025;-78
2023/07/01 07:24:31;;;;;;;7.10;2.67;;;19.50;55.70;;;;;;5033047;28;20030;-79
2023/07/01 07:27:03;;;;;;;5.18;2.70;;;19.50;54.40;;;;;;5032855;28;20033;-79
2023/07/01 07:29:29;;;;;;;5.38;2.83;;;19.50;54.90;;;;;;5032972;28;20026;-79
2023/07/01 07:31:56;;;;;;;5.47;2.90;;;19.70;53.90;;;;;;5032341;28;20498;-77
2023/07/01 07:34:25;;;;;;;2.72;2.25;;;20.00;53.00;;;;;;5033299;28;20056;-79
2023/07/01 07:36:51;;;;;;;4.70;2.40;;;20.30;52.20;;;;;;5022923;28;20471;-78
2023/07/01 07:39:20;;;;;;;4.93;2.95;;;20.20;52.30;;;;;;5021316;28;20033;-78
2023/07/01 07:41:49;;;;;;;4.65;2.63;;;20.10;52.20;;;;;;5037682;28;20032;-79
2023/07/01 07:44:15;;;;;;;5.95;2.70;;;19.90;53.50;;;;;;5034499;28;20227;-78
2023/07/01 07:46:42;;;;;;;7.15;2.88;;;19.80;52.10;;;;;;5032087;28;20033;-79
2023/07/01 07:49:08;;;;;;;3.17;2.33;;;19.60;53.00;;;;;;5032103;28;20048;-78
2023/07/01 07:51:33;;;;;;;4.85;2.63;;;19.40;52.20;;;;;;5031839;28;20455;-77
2023/07/01 07:53:59;;;;;;;5.57;3.03;;;19.30;53.40;;;;;;5031963;28;20095;-78
2023/07/01 07:56:25;;;;;;;6.00;2.45;;;19.30;54.50;;;;;;5031863;28;20112;-78
2023/07/01 07:58:50;;;;;;;4.65;2.90;;;19.50;53.80;;;;;;5031940;28;20462;-78
2023/07/01 08:01:19;;;;;;;5.50;2.95;;;19.70;53.60;;;;;;5031610;28;20033;-77
2023/07/01 08:03:44;;;;;;;4.32;2.72;;;19.80;53.80;;;;;;5031432;28;20045;-77
2023/07/01 08:06:20;;;;;;;4.25;2.30;;;19.80;52.80;;;;;;5031698;28;20021;-78
2023/07/01 08:08:45;;;;;;;;;;;19.80;52.70;;;;;;4999759;28;20033;-77
2023/07/01 08:11:11;;;;;;;4.28;3.15;;;19.80;53.20;;;;;;5031948;28;19905;-77
2023/07/01 08:13:37;;;;;;;5.88;2.65;;;20.20;51.90;;;;;;5031597;28;20112;-78
2023/07/01 08:16:04;;;;;;;5.03;2.33;;;20.40;53.60;;;;;;5031198;28;20188;-78
2023/07/01 08:18:30;;;;;;;8.73;3.00;;;20.30;51.30;;;;;;5032875;28;20056;-78
2023/07/01 08:20:56;;;;;;;6.65;2.60;;;20.20;53.40;;;;;;5031684;28;20502;-78
2023/07/01 08:23:22;;;;;;;4.65;2.80;;;20.30;51.70;;;;;;5031426;28;20034;-79
2023/07/01 08:25:48;;;;;;;8.02;2.83;;;20.30;51.50;;;;;;5031141;28;20550;-78
2023/07/01 08:28:13;;;;;;;4.32;2.47;;;20.40;52.70;;;;;;5031228;28;20022;-78
2023/07/01 08:30:39;;;;;;;6.03;3.00;;;20.40;52.10;;;;;;5031143;28;20032;-80
2023/07/01 08:33:04;;;;;;;5.13;3.50;;;20.30;51.50;;;;;;5031210;28;20029;-78
2023/07/01 08:35:30;;;;;;;5.13;2.65;;;20.30;53.40;;;;;;5031017;28;20125;-79
2023/07/01 08:37:57;;;;;;;6.20;3.13;;;20.20;52.60;;;;;;5031022;28;20076;-79
2023/07/01 08:40:23;;;;;;;5.93;2.17;;;20.20;53.20;;;;;;5032078;28;20053;-76
2023/07/01 08:42:52;;;;;;;4.38;2.80;;;20.20;53.40;;;;;;5030779;28;20060;-77
2023/07/01 08:45:22;;;;;;;6.50;2.92;;;20.10;53.30;;;;;;5030734;28;20100;-78
2023/07/01 08:47:49;;;;;;;5.05;2.80;;;19.70;54.30;;;;;;5030879;28;20108;-77
2023/07/01 08:50:19;;;;;;;4.32;2.38;;;19.60;53.90;;;;;;5031077;28;20088;-78
2023/07/01 08:53:00;;;;;;;5.40;2.70;;;19.80;54.40;;;;;;5031159;28;20025;-78
2023/07/01 08:55:26;;;;;;;3.22;2.17;;;19.90;53.50;;;;;;5030929;28;20124;-78
2023/07/01 08:57:52;;;;;;;4.97;2.50;;;20.20;53.10;;;;;;5031370;28;20080;-77
2023/07/01 09:00:18;;;;;;;4.13;2.58;;;20.50;52.20;;;;;;5031124;28;20132;-77
2023/07/01 09:02:44;;;;;;;4.95;2.75;;;20.60;51.60;;;;;;5028367;28;20438;-78
2023/07/01 09:05:09;;;;;;;4.25;2.30;;;20.90;50.60;;;;;;5012315;28;20478;-78
2023/07/01 09:07:35;;;;;;;5.03;2.67;;;21.00;50.00;;;;;;4994526;28;20037;-78
2023/07/01 09:10:01;;;;;;;4.82;2.45;;;20.80;50.10;;;;;;5011375;28;20128;-78
2023/07/01 09:12:27;;;;;;;7.55;2.40;;;20.90;49.70;;;;;;5011342;28;20072;-79
2023/07/01 09:14:58;;;;;;;3.35;2.33;;;20.80;48.90;;;;;;5011007;28;20459;-79
2023/07/01 09:17:32;;;;;;;6.40;2.35;;;20.80;47.20;;;;;;5011040;28;20140;-78
2023/07/01 09:20:00;;;;;;;3.22;2.15;;;20.60;47.10;;;;;;5011074;28;20037;-79
2023/07/01 09:22:28;;;;;;;2.42;2.10;;;20.40;48.10;;;;;;5010828;28;20026;-77
2023/07/01 09:24:54;;;;;;;2.50;1.88;;;20.50;47.60;;;;;;5010924;28;20352;-82
2023/07/01 09:27:22;;;;;;;8.70;2.15;;;20.40;47.30;;;;;;5011154;28;20105;-80
2023/07/01 09:29:48;;;;;;;4.35;2.13;;;20.20;49.00;;;;;;5011795;28;20060;-79
2023/07/01 09:32:29;;;;;;;8.07;2.72;;;20.30;49.60;;;;;;5015647;28;20143;-80
2023/07/01 09:34:56;;;;;;;3.47;2.38;;;20.50;48.40;;;;;;5014214;28;20026;-79
2023/07/01 09:37:23;;;;;;;5.40;2.30;;;20.70;48.60;;;;;;5014520;28;20033;-80
2023/07/01 09:39:49;;;;;;;2.67;2.10;;;20.80;46.90;;;;;;5014663;28;20034;-79
2023/07/01 09:42:18;;;;;;;5.15;2.35;;;21.00;46.60;;;;;;5014526;28;20037;-78
2023/07/01 09:45:07;;;;;;;5.15;2.10;;;21.10;45.70;;;;;;5014198;28;20099;-79
2023/07/01 09:47:34;;;;;;;6.35;2.28;;;21.40;47.70;;;;;;5014672;28;20022;-79
2023/07/01 09:50:01;;;;;;;1.88;1.65;;;21.60;43.40;;;;;;5014385;28;20109;-79
2023/07/01 09:52:34;;;;;;;4.82;2.20;;;21.50;44.40;;;;;;5014155;28;20030;-77
2023/07/01 09:55:02;;;;;;;5.10;2.15;;;21.50;44.40;;;;;;5013710;28;20034;-78
2023/07/01 09:57:28;;;;;;;4.63;2.10;;;21.60;43.30;;;;;;5013816;28;20497;-79
2023/07/01 09:59:54;;;;;;;2.78;2.22;;;21.60;42.30;;;;;;5014389;28;20022;-76
2023/07/01 10:02:20;;;;;;;5.43;2.42;;;21.60;41.90;;;;;;5019684;28;20422;-82
2023/07/01 10:04:47;;;;;;;4.38;2.30;;;21.70;40.90;;;;;;5019623;28;20038;-82
2023/07/01 10:07:13;;;;;;;5.93;2.10;;;21.70;42.20;;;;;;5014464;28;20053;-82
2023/07/01 10:09:46;;;;;;;5.07;2.40;;;21.80;41.80;;;;;;5013884;28;20034;-81
2023/07/01 10:12:15;;;;;;;4.47;1.90;;;21.90;41.40;;;;;;5013989;28;20487;-81
2023/07/01 10:14:43;;;;;;;6.55;2.30;;;21.90;41.00;;;;;;5013314;28;20030;-82
2023/07/01 10:17:09;;;;;;;5.45;2.17;;;21.80;41.20;;;;;;5014122;28;20485;-83
2023/07/01 10:19:35;;;;;;;3.03;1.95;;;21.80;40.80;;;;;;5013857;28;20435;-82
2023/07/01 10:22:20;;;;;;;6.13;2.45;;;21.80;39.60;;;;;;5013595;28;20028;-81
2023/07/01 10:24:53;;;;;;;;;;;21.90;40.30;;;;;;5013728;28;20046;-82
2023/07/01 10:27:41;;;;;;;6.10;2.15;;;21.90;40.10;;;;;;5013289;28;19948;-83
2023/07/01 10:30:11;;;;;;;3.90;2.65;;;21.90;39.30;;;;;;5013020;28;20113;-81
2023/07/01 10:32:37;;;;;;;7.38;2.35;;;22.00;39.60;;;;;;5013513;28;20026;-82
2023/07/01 10:35:05;;;;;;;5.85;2.30;;;22.10;40.20;;;;;;5013218;28;20540;-83
2023/07/01 10:37:34;;;;;;;3.13;2.47;;;22.30;39.30;;;;;;5013109;28;20117;-83
2023/07/01 10:40:26;;;;;;;4.03;2.15;;;22.40;39.00;;;;;;5013002;28;20026;-81
2023/07/01 10:43:13;;;;;;;6.38;2.70;;;22.50;38.80;;;;;;4998801;28;20022;-82
2023/07/01 10:45:39;;;;;;;5.40;2.15;;;22.50;37.80;;;;;;5013276;28;20478;-84
2023/07/01 10:48:11;;;;;;;6.53;2.47;;;22.10;38.50;;;;;;5012545;28;20026;-81
2023/07/01 10:51:03;;;;;;;5.35;2.70;;;22.00;39.10;;;;;;5012897;28;20029;-81
2023/07/01 10:53:30;;;;;;;3.47;2.30;;;22.30;38.80;;;;;;5013268;28;20490;-80
2023/07/01 10:56:16;;;;;;;5.05;2.50;;;22.50;37.60;;;;;;5013328;28;20121;-83
2023/07/01 10:58:43;;;;;;;3.55;2.25;;;22.80;38.30;;;;;;4997225;28;20149;-84
2023/07/01 11:01:40;;;;;;;4.63;2.22;;;22.70;37.50;;;;;;5040356;28;20079;-82
2023/07/01 11:04:06;;;;;;;3.42;2.30;;;22.60;37.00;;;;;;5021258;28;20402;-84
2023/07/01 11:06:49;;;;;;;3.78;2.05;;;22.60;37.40;;;;;;5007418;28;20028;-80
2023/07/01 11:09:16;;;;;;;3.40;2.40;;;22.60;37.40;;;;;;5022027;28;20029;-82
2023/07/01 11:11:42;;;;;;;3.42;2.10;;;22.80;38.00;;;;;;5021279;28;20038;-83
2023/07/01 11:14:11;;;;;;;3.42;2.42;;;23.00;37.00;;;;;;5021721;28;20025;-78
2023/07/01 11:16:38;;;;;;;4.97;2.58;;;22.90;36.80;;;;;;5005992;28;20203;-78
2023/07/01 11:19:07;;;;;;;5.35;2.95;;;22.70;37.10;;;;;;5023216;28;20021;-80
2023/07/01 11:21:32;;;;;;;5.90;2.70;;;22.60;36.80;;;;;;5021509;28;20021;-79
2023/07/01 11:24:03;;;;;;;5.43;2.65;;;22.60;36.80;;;;;;5023939;28;20037;-78
2023/07/01 11:26:37;;;;;;;4.18;2.85;;;22.70;36.70;;;;;;5021117;28;20080;-78
2023/07/01 11:29:09;;;;;;;6.18;3.20;;;22.80;35.70;;;;;;5021402;28;20104;-79
2023/07/01 11:31:36;;;;;;;6.45;3.08;;;22.90;36.20;;;;;;5021964;28;20347;-84
2023/07/01 11:34:04;;;;;;;3.30;2.53;;;23.10;35.30;;;;;;5023621;28;20057;-79
2023/07/01 11:36:43;;;;;;;4.35;2.90;;;23.30;34.50;;;;;;5017376;28;20022;-75
2023/07/01 11:39:14;;;;;;;4.78;2.40;;;23.20;35.40;;;;;;5012111;28;20129;-77
2023/07/01 11:41:42;;;;;;;5.15;2.85;;;23.00;36.20;;;;;;5012388;28;20133;-81
2023/07/01 11:44:10;;;;;;;5.63;2.25;;;23.20;35.90;;;;;;5011814;28;20026;-74
2023/07/01 11:46:38;;;;;;;7.32;2.92;;;23.40;34.30;;;;;;5012296;28;20036;-76
2023/07/01 11:49:14;;;;;;;4.75;2.78;;;23.20;34.70;;;;;;5011734;28;20390;-74
2023/07/01 11:51:49;;;;;;;6.88;2.50;;;23.40;36.00;;;;;;5017087;28;20033;-76
2023/07/01 11:54:16;;;;;;;3.67;2.33;;;23.60;35.10;;;;;;5022005;28;20124;-75
2023/07/01 11:56:43;;;;;;;3.03;2.45;;;23.80;35.20;;;;;;5020419;28;20386;-75
2023/07/01 11:59:09;;;;;;;3.75;2.50;;;23.80;34.50;;;;;;5021784;28;20116;-75
2023/07/01 12:01:40;;;;;;;4.57;2.25;;;23.80;34.30;;;;;;5021350;28;20060;-75
2023/07/01 12:04:16;;;;;;;2.83;2.53;;;23.80;35.40;;;;;;5013806;28;20406;-76
2023/07/01 12:06:42;;;;;;;4.05;2.33;;;23.70;34.50;;;;;;5016978;28;20025;-75
2023/07/01 12:09:08;;;;;;;5.60;2.60;;;23.80;33.90;;;;;;5020759;28;20028;-76
2023/07/01 12:11:47;;;;;;;3.10;2.17;;;23.70;35.80;;;;;;5025767;28;20466;-77
2023/07/01 12:14:21;;;;;;;5.38;2.00;;;23.30;35.80;;;;;;5031688;28;20025;-76
2023/07/01 12:16:49;;;;;;;4.38;1.90;;;23.20;37.80;;;;;;5024077;28;20054;-77
2023/07/01 12:19:25;;;;;;;2.15;1.80;;;23.20;36.70;;;;;;5026000;28;20036;-76
2023/07/01 12:21:53;;;;;;;3.35;1.80;;;23.00;38.00;;;;;;5031328;28;20125;-76
2023/07/01 12:24:21;;;;;;;3.10;1.90;;;23.00;38.30;;;;;;5020847;28;20152;-79
2023/07/01 12:26:51;;;;;;;5.10;2.20;;;23.00;38.20;;;;;;5016867;28;20438;-79
2023/07/01 12:29:17;;;;;;;2.53;1.92;;;23.00;37.70;;;;;;5011654;28;20026;-78
2023/07/01 12:31:43;;;;;;;4.22;2.00;;;22.70;38.90;;;;;;5011503;28;20493;-76
2023/07/01 12:34:09;;;;;;;5.22;1.80;;;22.60;38.60;;;;;;5014110;28;20026;-76
2023/07/01 12:36:35;;;;;;;2.55;1.60;;;22.40;38.60;;;;;;5016916;28;20029;-75
2023/07/01 12:39:03;;;;;;;5.90;1.77;;;22.30;39.40;;;;;;5012451;28;20025;-76
2023/07/01 12:41:33;;;;;;;3.95;1.90;;;22.30;39.00;;;;;;5011328;28;20423;-75
2023/07/01 12:43:59;;;;;;;5.10;2.40;;;21.90;40.40;;;;;;5012927;28;20030;-75
2023/07/01 12:46:25;;;;;;;6.20;2.25;;;21.60;41.40;;;;;;5014473;28;20074;-76
2023/07/01 12:48:50;;;;;;;5.60;2.20;;;21.70;41.00;;;;;;5020578;28;20022;-75
2023/07/01 12:51:16;;;;;;;5.50;2.25;;;21.80;40.80;;;;;;5020595;28;20056;-74